Terminal Aerodrome Forecast
Issued by NWS

Home | Current Version | Previous Version | Text Only | Print | Product List | Glossary On
Versions: 1 2 3 4 5 6 7 8 9 10 11 12 13 14 15 16 17 18 19 20 21 22 23 24 25 26 27 28 29 30 31 32
000
FTAK31 PAFA 050325 AAB
TAFAMC
TAF AMD
PAMC 050325Z 0503/0524 09007KT 6SM -RA BR SCT015 BKN040 OVC050
      TEMPO 0503/0505 2SM -RA BR SCT007 BKN025
     FM050900 22005KT P6SM -SHRA SCT015 BKN025 OVC050
     FM052100 00000KT P6SM OVC050=

USA.gov is the U.S. government's official web portal to all federal, state and local government web resources and services.